Time;durP1;ratioP1;P1;durP2;ratioP2;P2;SDS_P1;SDS_P2;PMS_P1;PMS_P2;Temp;Humidity;BMP_temperature;BMP_pressure;BME280_temperature;BME280_humidity;BME280_pressure;Samples;Min_cycle;Max_cycle;Signal;HPM_P1;HPM_P2
2022/10/26 00:01:08;;;;;;;;;;;;;;;21.21;63.79;100517.25;7281857;19;153566;-58
2022/10/26 00:03:38;;;;;;;;;;;;;;;21.22;64.06;100510.47;7280562;19;152391;-58
2022/10/26 00:06:12;;;;;;;;;;;;;;;21.23;63.88;100503.72;7279410;19;152574;-58
2022/10/26 00:08:39;;;;;;;;;;;;;;;21.27;63.96;100501.09;7283843;19;153723;-58
2022/10/26 00:11:06;;;;;;;;;;;;;;;21.24;64.04;100485.72;7286105;19;152746;-58
2022/10/26 00:13:33;;;;;;;;;;;;;;;21.26;63.85;100491.81;7279595;19;152716;-58
2022/10/26 00:16:00;;;;;;;;;;;;;;;21.28;63.45;100488.69;7280970;19;154117;-57
2022/10/26 00:18:26;;;;;;;;;;;;;;;21.28;63.76;100488.69;7280093;19;154087;-58
2022/10/26 00:20:53;;;;;;;;;;;;;;;21.30;63.50;100486.41;7281440;19;153686;-58
2022/10/26 00:23:20;;;;;;;;;;;;;;;21.30;65.09;100489.22;7277492;19;153925;-58
2022/10/26 00:25:56;;;;;;;;;;;;;;;21.31;64.16;100490.84;7282818;19;152965;-57
2022/10/26 00:28:23;;;;;;;;;;;;;;;21.32;63.81;100492.50;7279792;19;153834;-58
2022/10/26 00:30:49;;;;;;;;;;;;;;;21.33;63.69;100487.72;7285144;19;153502;-58
2022/10/26 00:33:16;;;;;;;;;;;;;;;21.32;63.71;100491.69;7278684;19;154712;-58
2022/10/26 00:35:45;;;;;;;;;;;;;;;21.31;63.88;100488.03;7282010;19;154250;-57
2022/10/26 00:38:12;;;;;;;;;;;;;;;21.33;63.45;100487.72;7279916;19;152728;-57
2022/10/26 00:40:39;;;;;;;;;;;;;;;21.32;63.70;100486.06;7281824;19;155240;-57
2022/10/26 00:43:13;;;;;;;;;;;;;;;21.32;63.85;100481.28;7275030;19;153431;-57
2022/10/26 00:45:41;;;;;;;;;;;;;;;21.30;63.48;100487.19;7282101;19;152466;-57
2022/10/26 00:48:13;;;;;;;;;;;;;;;21.32;63.43;100472.84;7279305;19;155001;-58
2022/10/26 00:50:42;;;;;;;;;;;;;;;21.32;63.66;100475.66;7281644;19;153689;-58
2022/10/26 00:53:10;;;;;;;;;;;;;;;21.33;63.79;100465.25;7287781;19;153833;-57
2022/10/26 00:55:39;;;;;;;;;;;;;;;21.33;63.71;100468.88;7279185;19;153782;-57
2022/10/26 00:58:07;;;;;;;;;;;;;;;21.33;63.78;100479.28;7276614;19;153464;-58
2022/10/26 01:00:34;;;;;;;;;;;;;;;21.31;63.61;100473.97;7281936;19;153814;-57
2022/10/26 01:03:07;;;;;;;;;;;;;;;21.32;63.32;100466.38;7278300;19;153355;-58
2022/10/26 01:05:40;;;;;;;;;;;;;;;21.30;63.44;100461.13;7279599;19;152124;-58
2022/10/26 01:08:07;;;;;;;;;;;;;;;21.31;63.25;100459.94;7281924;19;153977;-58
2022/10/26 01:10:35;;;;;;;;;;;;;;;21.32;63.29;100455.16;7286692;19;154109;-58
2022/10/26 01:13:01;;;;;;;;;;;;;;;21.30;63.96;100453.47;7281499;19;153240;-58
2022/10/26 01:15:48;;;;;;;;;;;;;;;21.31;63.61;100451.50;7293589;19;153469;-60
2022/10/26 01:18:35;;;;;;;;;;;;;;;21.30;63.64;100450.69;7283005;19;152885;-58
2022/10/26 01:21:21;;;;;;;;;;;;;;;21.30;63.55;100455.50;7285937;19;153028;-58
2022/10/26 01:24:05;;;;;;;;;;;;;;;21.30;63.75;100458.31;7287936;19;154628;-58
2022/10/26 01:26:38;;;;;;;;;;;;;;;21.29;64.16;100453.84;7286292;19;152648;-58
2022/10/26 01:29:05;;;;;;;;;;;;;;;21.27;64.04;100450.50;7288192;19;153742;-58
2022/10/26 01:31:43;;;;;;;;;;;;;;;21.26;64.28;100448.84;7281547;19;152445;-58
2022/10/26 01:34:21;;;;;;;;;;;;;;;21.25;64.76;100448.03;7288531;19;152722;-58
2022/10/26 01:36:52;;;;;;;;;;;;;;;21.25;64.94;100441.59;7287868;19;155041;-57
2022/10/26 01:39:38;;;;;;;;;;;;;;;21.24;64.30;100440.75;7291631;19;154368;-58
2022/10/26 01:42:07;;;;;;;;;;;;;;;21.25;64.29;100435.97;7284032;19;154138;-58
2022/10/26 01:44:41;;;;;;;;;;;;;;;21.26;64.29;100440.41;7285116;19;153744;-58
2022/10/26 01:47:12;;;;;;;;;;;;;;;21.26;64.58;100443.22;7286536;19;151973;-59
2022/10/26 01:49:42;;;;;;;;;;;;;;;21.26;64.45;100444.06;7286562;19;151792;-59
2022/10/26 01:52:09;;;;;;;;;;;;;;;21.25;64.37;100441.59;7285627;19;154065;-59
2022/10/26 01:54:36;;;;;;;;;;;;;;;21.25;64.24;100441.59;7286771;19;152528;-59
2022/10/26 01:57:23;;;;;;;;;;;;;;;21.23;64.09;100453.13;7282535;19;152641;-58
2022/10/26 02:00:08;;;;;;;;;;;;;;;21.22;64.56;100448.66;7281928;19;155025;-58
2022/10/26 02:02:37;;;;;;;;;;;;;;;21.23;64.75;100444.72;7292534;19;152173;-58
2022/10/26 02:05:10;;;;;;;;;;;;;;;21.24;64.45;100451.16;7284187;19;153908;-58
2022/10/26 02:07:36;;;;;;;;;;;;;;;21.22;64.51;100447.84;7285226;19;151949;-58
2022/10/26 02:10:06;;;;;;;;;;;;;;;21.23;64.41;100441.91;7286545;19;153035;-58
2022/10/26 02:12:37;;;;;;;;;;;;;;;21.23;64.55;100441.91;7279756;19;152683;-59
2022/10/26 02:15:19;;;;;;;;;;;;;;;21.22;64.66;100443.06;7285516;19;152537;-59
2022/10/26 02:18:12;;;;;;;;;;;;;;;21.21;64.72;100437.78;7285276;19;153909;-59
2022/10/26 02:20:42;;;;;;;;;;;;;;;21.20;64.73;100444.53;7276830;19;153524;-59
2022/10/26 02:23:10;;;;;;;;;;;;;;;21.21;64.38;100438.56;7293591;19;152258;-58
2022/10/26 02:25:43;;;;;;;;;;;;;;;21.20;64.94;100431.31;7285519;19;153729;-58
2022/10/26 02:28:12;;;;;;;;;;;;;;;21.21;64.74;100427.34;7282749;19;152521;-59
2022/10/26 02:30:40;;;;;;;;;;;;;;;21.20;64.71;100422.91;7285778;19;153470;-58
2022/10/26 02:33:09;;;;;;;;;;;;;;;21.19;64.82;100415.63;7284249;19;153610;-58
2022/10/26 02:35:38;;;;;;;;;;;;;;;21.20;64.65;100422.06;7283393;19;151778;-58
2022/10/26 02:38:07;;;;;;;;;;;;;;;21.20;64.84;100405.22;7285481;19;153436;-58
2022/10/26 02:40:35;;;;;;;;;;;;;;;21.20;64.91;100416.44;7284816;19;154804;-58
2022/10/26 02:43:05;;;;;;;;;;;;;;;21.20;65.15;100427.69;7280641;19;154631;-58
2022/10/26 02:45:54;;;;;;;;;;;;;;;21.18;64.86;100419.56;7291773;19;153134;-58
2022/10/26 02:48:22;;;;;;;;;;;;;;;21.19;65.07;100420.41;7284479;19;151920;-58
2022/10/26 02:50:57;;;;;;;;;;;;;;;21.19;64.84;100417.59;7283645;19;153174;-58
2022/10/26 02:53:27;;;;;;;;;;;;;;;21.18;64.66;100427.16;7283303;19;152948;-58
2022/10/26 02:55:54;;;;;;;;;;;;;;;21.17;64.99;100423.53;7285311;19;152341;-63
2022/10/26 02:58:25;;;;;;;;;;;;;;;21.17;64.75;100403.88;7280071;19;153973;-58
2022/10/26 03:00:52;;;;;;;;;;;;;;;21.17;65.36;100406.66;7284454;19;153403;-58
2022/10/26 03:03:19;;;;;;;;;;;;;;;21.18;64.82;100393.44;7284496;19;152963;-59
2022/10/26 03:05:46;;;;;;;;;;;;;;;21.17;64.87;100403.03;7283874;19;152687;-58
2022/10/26 03:08:12;;;;;;;;;;;;;;;21.16;65.01;100391.00;7289941;19;153169;-58
2022/10/26 03:10:40;;;;;;;;;;;;;;;21.16;65.52;100388.19;7285488;19;153459;-58
2022/10/26 03:13:07;;;;;;;;;;;;;;;21.15;65.39;100380.06;7279033;19;154652;-60
2022/10/26 03:15:34;;;;;;;;;;;;;;;21.15;65.11;100389.31;7284804;19;152577;-58
2022/10/26 03:18:01;;;;;;;;;;;;;;;21.14;65.27;100389.66;7284730;19;153918;-58
2022/10/26 03:20:27;;;;;;;;;;;;;;;21.15;65.23;100394.13;7279066;19;153389;-58
2022/10/26 03:22:55;;;;;;;;;;;;;;;21.12;65.40;100378.69;7283374;19;152841;-58
2022/10/26 03:25:23;;;;;;;;;;;;;;;21.12;65.33;100389.13;7283572;19;153905;-58
2022/10/26 03:27:59;;;;;;;;;;;;;;;21.12;65.65;100381.50;7278051;19;153766;-58
2022/10/26 03:30:27;;;;;;;;;;;;;;;21.12;65.48;100375.88;7287605;19;152482;-59
2022/10/26 03:32:53;;;;;;;;;;;;;;;21.11;65.50;100391.09;7281407;19;153715;-58
2022/10/26 03:35:20;;;;;;;;;;;;;;;21.11;66.05;100382.69;7284380;19;152051;-58
2022/10/26 03:37:47;;;;;;;;;;;;;;;21.12;66.14;100391.94;7283699;19;152885;-58
2022/10/26 03:40:14;;;;;;;;;;;;;;;21.11;65.94;100388.28;7280129;19;154106;-58
2022/10/26 03:42:41;;;;;;;;;;;;;;;21.11;65.92;100374.25;7280328;19;154335;-57
2022/10/26 03:45:08;;;;;;;;;;;;;;;21.12;66.05;100384.31;7283295;19;153484;-59
2022/10/26 03:47:41;;;;;;;;;;;;;;;21.13;66.10;100404.84;7282870;19;153369;-58
2022/10/26 03:50:08;;;;;;;;;;;;;;;21.12;65.96;100391.94;7283682;19;152051;-57
2022/10/26 03:52:35;;;;;;;;;;;;;;;21.13;66.04;100399.22;7288376;19;153810;-58
2022/10/26 03:55:01;;;;;;;;;;;;;;;21.12;65.80;100403.97;7284583;19;152064;-58
2022/10/26 03:57:28;;;;;;;;;;;;;;;21.13;65.75;100413.25;7279688;19;153441;-58
2022/10/26 03:59:54;;;;;;;;;;;;;;;21.13;66.20;100418.88;7279791;19;154378;-58
2022/10/26 04:02:21;;;;;;;;;;;;;;;21.13;66.39;100421.69;7283777;19;152456;-60
2022/10/26 04:04:48;;;;;;;;;;;;;;;21.13;66.51;100418.88;7278321;19;152982;-58
2022/10/26 04:07:15;;;;;;;;;;;;;;;21.11;66.17;100407.97;7282463;19;153777;-60
2022/10/26 04:09:42;;;;;;;;;;;;;;;21.12;65.75;100409.59;7280499;19;152534;-58
2022/10/26 04:12:08;;;;;;;;;;;;;;;21.10;66.02;100417.53;7280706;19;152951;-58
2022/10/26 04:14:35;;;;;;;;;;;;;;;21.12;66.16;100420.03;7286042;19;153941;-58
2022/10/26 04:17:01;;;;;;;;;;;;;;;21.10;66.32;100411.91;7283297;19;153676;-58
2022/10/26 04:19:28;;;;;;;;;;;;;;;21.10;66.37;100417.53;7279835;19;152654;-58
2022/10/26 04:21:55;;;;;;;;;;;;;;;21.10;66.42;100416.69;7282585;19;152073;-58
2022/10/26 04:24:21;;;;;;;;;;;;;;;21.09;66.46;100415.03;7277196;19;152144;-58
2022/10/26 04:26:48;;;;;;;;;;;;;;;21.08;66.55;100417.03;7279643;19;154224;-58
2022/10/26 04:29:30;;;;;;;;;;;;;;;21.07;66.80;100406.97;7280549;19;154491;-58
2022/10/26 04:32:03;;;;;;;;;;;;;;;21.08;66.38;100414.22;7282484;19;152635;-58
2022/10/26 04:34:29;;;;;;;;;;;;;;;21.07;66.75;100411.75;7284407;19;153379;-58
2022/10/26 04:36:56;;;;;;;;;;;;;;;21.07;66.74;100415.38;7280532;19;153496;-58
2022/10/26 04:39:23;;;;;;;;;;;;;;;21.08;66.82;100419.00;7279907;19;153420;-58
2022/10/26 04:41:49;;;;;;;;;;;;;;;21.07;66.90;100425.78;7279970;19;152551;-58
2022/10/26 04:44:16;;;;;;;;;;;;;;;21.07;66.89;100420.19;7285375;19;153441;-57
2022/10/26 04:46:43;;;;;;;;;;;;;;;21.06;67.13;100430.59;7286735;19;153162;-58
2022/10/26 04:49:09;;;;;;;;;;;;;;;21.06;67.16;100432.56;7289246;19;152271;-58
2022/10/26 04:51:36;;;;;;;;;;;;;;;21.08;66.92;100424.63;7288732;19;153057;-58
2022/10/26 04:54:03;;;;;;;;;;;;;;;21.07;67.10;100432.25;7287705;19;154321;-58
2022/10/26 04:56:29;;;;;;;;;;;;;;;21.08;66.81;100439.50;7292076;19;152149;-58
2022/10/26 04:58:56;;;;;;;;;;;;;;;21.08;67.05;100433.03;7285383;19;154148;-58
2022/10/26 05:01:23;;;;;;;;;;;;;;;21.07;67.18;100442.66;7286118;19;152708;-59
2022/10/26 05:03:50;;;;;;;;;;;;;;;21.08;67.30;100438.66;7288907;19;153699;-58
2022/10/26 05:06:17;;;;;;;;;;;;;;;21.07;67.82;100446.28;7283277;19;154504;-59
2022/10/26 05:08:44;;;;;;;;;;;;;;;21.07;67.50;100448.25;7289374;19;151941;-58
2022/10/26 05:11:11;;;;;;;;;;;;;;;21.06;67.90;100450.25;7286056;19;154527;-58
2022/10/26 05:13:38;;;;;;;;;;;;;;;21.06;67.70;100453.06;7283992;19;153498;-59
2022/10/26 05:16:04;;;;;;;;;;;;;;;21.07;67.82;100462.31;7283581;19;152033;-58
2022/10/26 05:18:31;;;;;;;;;;;;;;;21.07;67.89;100471.56;7294710;19;153283;-58
2022/10/26 05:20:58;;;;;;;;;;;;;;;21.08;68.00;100476.00;7284440;19;153092;-58
2022/10/26 05:23:24;;;;;;;;;;;;;;;21.08;68.11;100480.78;7288519;19;152946;-58
2022/10/26 05:25:51;;;;;;;;;;;;;;;21.08;68.11;100484.44;7286661;19;153305;-59
2022/10/26 05:28:18;;;;;;;;;;;;;;;21.09;68.05;100483.28;7284558;19;154340;-59
2022/10/26 05:30:44;;;;;;;;;;;;;;;21.08;68.75;100480.78;7286632;19;153098;-59
2022/10/26 05:33:12;;;;;;;;;;;;;;;21.08;68.57;100492.88;7285701;19;154478;-60
2022/10/26 05:35:39;;;;;;;;;;;;;;;21.09;68.38;100493.69;7286705;19;152358;-59
2022/10/26 05:38:13;;;;;;;;;;;;;;;21.08;68.68;100487.25;7288047;19;153152;-58
2022/10/26 05:40:50;;;;;;;;;;;;;;;21.09;68.48;100499.31;7293008;19;154800;-58
2022/10/26 05:43:17;;;;;;;;;;;;;;;21.08;68.65;100498.47;7283712;19;153001;-58
2022/10/26 05:45:44;;;;;;;;;;;;;;;21.09;68.52;100496.50;7284189;19;153809;-58
2022/10/26 05:48:11;;;;;;;;;;;;;;;21.08;68.55;100504.09;7287480;19;152028;-58
2022/10/26 05:50:37;;;;;;;;;;;;;;;21.08;69.02;100503.28;7286122;19;153287;-58
2022/10/26 05:53:04;;;;;;;;;;;;;;;21.09;68.83;100510.56;7285942;19;154068;-58
2022/10/26 05:55:31;;;;;;;;;;;;;;;21.08;68.91;100520.97;7282817;19;152444;-58
2022/10/26 05:57:58;;;;;;;;;;;;;;;21.10;68.75;100518.66;7284352;19;152795;-59
2022/10/26 06:00:26;;;;;;;;;;;;;;;21.10;68.53;100523.44;7282738;19;154279;-59
2022/10/26 06:03:11;;;;;;;;;;;;;;;21.09;68.74;100528.25;7294724;19;154386;-58
2022/10/26 06:05:44;;;;;;;;;;;;;;;21.10;68.94;100523.44;7282017;19;153600;-59
2022/10/26 06:08:11;;;;;;;;;;;;;;;21.10;69.04;100531.88;7282410;19;153489;-59
2022/10/26 06:10:38;;;;;;;;;;;;;;;21.10;68.67;100523.44;7286239;19;153145;-58
2022/10/26 06:13:05;;;;;;;;;;;;;;;21.10;68.81;100526.25;7280456;19;152433;-58
2022/10/26 06:15:36;;;;;;;;;;;;;;;21.09;69.28;100522.63;7284510;19;152462;-58
2022/10/26 06:18:15;;;;;;;;;;;;;;;21.09;69.05;100514.19;7283922;19;152403;-58
2022/10/26 06:20:42;;;;;;;;;;;;;;;21.09;69.30;100522.63;7283127;19;154297;-58
2022/10/26 06:23:11;;;;;;;;;;;;;;;21.09;69.16;100528.25;7285198;19;152125;-58
2022/10/26 06:25:47;;;;;;;;;;;;;;;21.09;68.81;100531.03;7291157;19;153207;-58
2022/10/26 06:28:14;;;;;;;;;;;;;;;21.08;68.84;100528.56;7283544;19;152520;-58
2022/10/26 06:30:40;;;;;;;;;;;;;;;21.09;69.38;100536.66;7283404;19;153712;-58
2022/10/26 06:33:09;;;;;;;;;;;;;;;21.08;68.96;100534.16;7283378;19;153996;-58
2022/10/26 06:35:53;;;;;;;;;;;;;;;21.08;69.19;100528.56;7283354;19;152065;-58
2022/10/26 06:38:21;;;;;;;;;;;;;;;21.07;69.16;100541.78;7285835;19;153301;-58
2022/10/26 06:40:50;;;;;;;;;;;;;;;21.08;69.00;100536.97;7282569;19;152805;-58
2022/10/26 06:43:24;;;;;;;;;;;;;;;21.06;69.50;100537.31;7282973;19;153145;-58
2022/10/26 06:46:17;;;;;;;;;;;;;;;21.07;68.92;100543.78;7291000;19;153272;-58
2022/10/26 06:49:12;;;;;;;;;;;;;;;21.07;68.92;100553.03;7283192;19;152019;-58
2022/10/26 06:51:43;;;;;;;;;;;;;;;21.07;68.91;100557.81;7284667;19;153162;-58
2022/10/26 06:54:10;;;;;;;;;;;;;;;21.07;68.84;100560.63;7283617;19;153655;-59
2022/10/26 06:56:36;;;;;;;;;;;;;;;21.07;69.32;100557.81;7282316;19;152660;-58
2022/10/26 06:59:07;;;;;;;;;;;;;;;21.06;68.88;100556.97;7281541;19;153266;-57
2022/10/26 07:01:33;;;;;;;;;;;;;;;21.07;68.82;100560.63;7279434;19;154388;-58
2022/10/26 07:04:00;;;;;;;;;;;;;;;21.07;68.93;100555.84;7285349;19;151841;-58
2022/10/26 07:06:27;;;;;;;;;;;;;;;21.06;69.33;100556.97;7278514;19;153597;-58
2022/10/26 07:08:54;;;;;;;;;;;;;;;21.08;69.25;100565.06;7291001;19;154012;-58
2022/10/26 07:11:20;;;;;;;;;;;;;;;21.07;69.30;100569.88;7279474;19;152854;-58
2022/10/26 07:13:49;;;;;;;;;;;;;;;21.08;69.41;100570.69;7282330;19;152769;-58
2022/10/26 07:16:16;;;;;;;;;;;;;;;21.09;69.20;100563.91;7283022;19;151942;-58
2022/10/26 07:18:42;;;;;;;;;;;;;;;21.09;69.19;100566.72;7283876;19;153636;-58
2022/10/26 07:21:09;;;;;;;;;;;;;;;21.08;68.84;100574.31;7279844;19;155078;-58
2022/10/26 07:23:36;;;;;;;;;;;;;;;21.07;68.86;100574.66;7284168;19;151868;-58
2022/10/26 07:26:02;;;;;;;;;;;;;;;21.07;69.08;100574.66;7283603;19;153175;-58
2022/10/26 07:28:29;;;;;;;;;;;;;;;21.06;68.84;100587.03;7280710;19;153991;-58
2022/10/26 07:30:57;;;;;;;;;;;;;;;21.07;69.21;100599.94;7290698;19;152818;-58
2022/10/26 07:33:24;;;;;;;;;;;;;;;21.06;68.69;100606.72;7283252;19;153986;-59
2022/10/26 07:35:51;;;;;;;;;;;;;;;21.07;69.04;100609.22;7283527;19;152497;-58
2022/10/26 07:38:18;;;;;;;;;;;;;;;21.07;69.07;100611.19;7281812;19;153347;-58
2022/10/26 07:40:45;;;;;;;;;;;;;;;21.07;69.75;100612.03;7278454;19;154409;-58
2022/10/26 07:43:12;;;;;;;;;;;;;;;21.07;70.58;100606.41;7279540;19;152653;-58
2022/10/26 07:45:39;;;;;;;;;;;;;;;21.10;71.57;100610.53;7280167;19;152835;-60
2022/10/26 07:48:06;;;;;;;;;;;;;;;21.13;71.54;100622.00;7282935;19;153807;-58
2022/10/26 07:50:33;;;;;;;;;;;;;;;21.17;71.48;100616.56;7282606;19;152923;-58
2022/10/26 07:52:59;;;;;;;;;;;;;;;21.21;72.22;100626.81;7289443;19;153352;-58
2022/10/26 07:55:27;;;;;;;;;;;;;;;21.27;71.86;100624.72;7281960;19;152064;-58
2022/10/26 07:57:54;;;;;;;;;;;;;;;21.29;71.65;100614.84;7279764;19;154450;-58
2022/10/26 08:00:21;;;;;;;;;;;;;;;21.34;71.70;100618.66;7279224;19;154059;-59
2022/10/26 08:02:48;;;;;;;;;;;;;;;21.37;71.84;100632.88;7283204;19;152364;-59
2022/10/26 08:05:15;;;;;;;;;;;;;;;21.41;71.72;100635.88;7281858;19;152448;-58
2022/10/26 08:07:42;;;;;;;;;;;;;;;21.45;72.00;100636.88;7279812;19;154134;-58
2022/10/26 08:10:10;;;;;;;;;;;;;;;21.46;71.51;100642.19;7284273;19;152507;-58
2022/10/26 08:12:37;;;;;;;;;;;;;;;21.49;71.12;100637.91;7280093;19;152970;-58
2022/10/26 08:15:04;;;;;;;;;;;;;;;21.51;70.92;100636.44;7288065;19;153364;-58
2022/10/26 08:17:30;;;;;;;;;;;;;;;21.54;70.74;100646.19;7281265;19;153420;-58
2022/10/26 08:19:57;;;;;;;;;;;;;;;21.55;71.14;100640.25;7282047;19;153091;-59
2022/10/26 08:22:24;;;;;;;;;;;;;;;21.57;70.67;100646.41;7279753;19;151989;-58
2022/10/26 08:24:50;;;;;;;;;;;;;;;21.58;71.03;100656.47;7278478;19;154007;-58
2022/10/26 08:27:17;;;;;;;;;;;;;;;21.60;70.41;100662.63;7278667;19;153723;-58
2022/10/26 08:29:44;;;;;;;;;;;;;;;21.63;70.56;100663.94;7282141;19;151756;-59
2022/10/26 08:32:10;;;;;;;;;;;;;;;21.64;70.21;100659.97;7281884;19;154801;-58
2022/10/26 08:34:37;;;;;;;;;;;;;;;21.66;70.19;100664.16;7280879;19;153389;-58
2022/10/26 08:37:04;;;;;;;;;;;;;;;21.72;70.17;100664.81;7287559;19;152459;-58
2022/10/26 08:39:30;;;;;;;;;;;;;;;21.76;70.46;100663.00;7280715;19;154086;-58
2022/10/26 08:42:01;;;;;;;;;;;;;;;21.76;69.82;100660.19;7274045;19;154284;-57
2022/10/26 08:44:48;;;;;;;;;;;;;;;21.77;69.54;100663.84;7280482;19;153482;-58
2022/10/26 08:47:41;;;;;;;;;;;;;;;21.79;69.02;100672.81;7279350;19;153949;-59
2022/10/26 08:50:16;;;;;;;;;;;;;;;21.78;68.58;100671.13;7282455;19;152084;-58
2022/10/26 08:52:47;;;;;;;;;;;;;;;21.79;68.00;100670.81;7282708;19;152550;-58
2022/10/26 08:55:16;;;;;;;;;;;;;;;21.81;67.32;100682.56;7278841;19;154139;-58
2022/10/26 08:57:46;;;;;;;;;;;;;;;21.80;67.16;100672.50;7284629;19;152283;-58
2022/10/26 09:00:16;;;;;;;;;;;;;;;21.80;67.10;100669.69;7279187;19;153007;-58
2022/10/26 09:02:48;;;;;;;;;;;;;;;21.81;66.95;100673.28;7278813;19;152016;-58
2022/10/26 09:05:16;;;;;;;;;;;;;;;21.83;66.54;100673.81;7280186;19;152174;-58
2022/10/26 09:07:46;;;;;;;;;;;;;;;21.83;66.19;100677.47;7279066;19;154630;-58
2022/10/26 09:10:27;;;;;;;;;;;;;;;21.81;66.51;100660.06;7280752;19;152086;-58
2022/10/26 09:13:23;;;;;;;;;;;;;;;21.82;66.85;100669.34;7277020;19;153376;-58
2022/10/26 09:15:54;;;;;;;;;;;;;;;21.82;65.19;100660.91;7276416;19;152583;-58
2022/10/26 09:18:27;;;;;;;;;;;;;;;21.81;64.46;100657.25;7279966;19;152286;-58
2022/10/26 09:21:00;;;;;;;;;;;;;;;21.77;64.03;100670.31;7287564;19;152718;-58
2022/10/26 09:23:27;;;;;;;;;;;;;;;21.73;63.75;100670.13;7279638;19;152212;-58
2022/10/26 09:25:57;;;;;;;;;;;;;;;21.66;63.74;100666.13;7279699;19;153291;-58
2022/10/26 09:28:25;;;;;;;;;;;;;;;21.61;63.73;100703.66;7276491;19;154501;-58
2022/10/26 09:30:52;;;;;;;;;;;;;;;21.59;63.80;100683.44;7288618;19;152274;-58
2022/10/26 09:33:21;;;;;;;;;;;;;;;21.56;64.41;100674.84;7288120;19;154435;-58
2022/10/26 09:35:48;;;;;;;;;;;;;;;21.52;64.32;100683.09;7286141;19;154496;-58
2022/10/26 09:38:15;;;;;;;;;;;;;;;21.49;64.51;100692.16;7287112;19;152393;-58
2022/10/26 09:40:57;;;;;;;;;;;;;;;21.47;64.31;100694.47;7287187;19;154388;-58
2022/10/26 09:43:44;;;;;;;;;;;;;;;21.40;64.83;100694.06;7290987;19;154526;-58
2022/10/26 09:46:14;;;;;;;;;;;;;;;21.39;64.66;100692.44;7286294;19;153621;-58
2022/10/26 09:48:47;;;;;;;;;;;;;;;21.37;65.23;100693.88;7286370;19;152873;-59
2022/10/26 09:51:15;;;;;;;;;;;;;;;21.36;65.73;100693.06;7286483;19;152077;-58
2022/10/26 09:53:41;;;;;;;;;;;;;;;21.38;65.66;100690.75;7286588;19;152753;-59
2022/10/26 09:56:10;;;;;;;;;;;;;;;21.40;66.02;100687.59;7285305;19;153770;-59
2022/10/26 09:58:39;;;;;;;;;;;;;;;21.40;66.15;100701.66;7282653;19;153025;-59
2022/10/26 10:01:06;;;;;;;;;;;;;;;21.40;66.33;100708.13;7285422;19;152658;-59
2022/10/26 10:03:33;;;;;;;;;;;;;;;21.41;66.41;100717.38;7286135;19;153224;-59
2022/10/26 10:06:26;;;;;;;;;;;;;;;21.40;66.48;100724.97;7292728;19;152424;-59
2022/10/26 10:09:11;;;;;;;;;;;;;;;21.42;66.92;100710.63;7284421;19;155426;-59
2022/10/26 10:11:39;;;;;;;;;;;;;;;21.49;67.21;100713.78;7280403;19;153502;-59
2022/10/26 10:14:14;;;;;;;;;;;;;;;21.49;66.80;100708.19;7285804;19;153238;-58
2022/10/26 10:16:48;;;;;;;;;;;;;;;21.45;66.68;100716.44;7284529;19;154499;-58
2022/10/26 10:19:41;;;;;;;;;;;;;;;21.44;67.27;100734.44;7285833;19;152939;-58
2022/10/26 10:22:18;;;;;;;;;;;;;;;21.52;67.00;100736.50;7281872;19;154499;-58
2022/10/26 10:24:53;;;;;;;;;;;;;;;21.51;66.62;100754.50;7285160;19;154491;-59
2022/10/26 10:27:22;;;;;;;;;;;;;;;21.49;66.67;100753.16;7281873;19;152510;-59
2022/10/26 10:29:54;;;;;;;;;;;;;;;21.47;67.15;100761.09;7291092;19;154149;-59
2022/10/26 10:32:32;;;;;;;;;;;;;;;21.49;66.61;100762.41;7284511;19;152392;-59
2022/10/26 10:35:21;;;;;;;;;;;;;;;21.48;66.65;100766.41;7285958;19;153893;-58
2022/10/26 10:37:49;;;;;;;;;;;;;;;21.50;66.75;100774.50;7283587;19;154619;-59
2022/10/26 10:40:24;;;;;;;;;;;;;;;21.54;66.46;100795.19;7284622;19;152082;-58
2022/10/26 10:42:52;;;;;;;;;;;;;;;21.55;66.85;100780.84;7278940;19;153714;-57
2022/10/26 10:45:27;;;;;;;;;;;;;;;21.58;67.05;100799.84;7284271;19;152949;-58
2022/10/26 10:48:02;;;;;;;;;;;;;;;21.59;66.82;100795.91;7285768;19;152302;-59
2022/10/26 10:50:30;;;;;;;;;;;;;;;21.58;66.58;100805.47;7285961;19;153788;-58
2022/10/26 10:53:18;;;;;;;;;;;;;;;21.59;66.65;100807.16;7290904;19;152106;-59
2022/10/26 10:56:08;;;;;;;;;;;;;;;21.56;65.83;100802.19;7285405;19;153599;-59
2022/10/26 10:58:46;;;;;;;;;;;;;;;21.58;66.12;100825.16;7278910;19;153440;-59
2022/10/26 11:01:14;;;;;;;;;;;;;;;21.61;66.37;100824.56;7283155;19;152414;-59
2022/10/26 11:03:56;;;;;;;;;;;;;;;21.64;66.01;100812.66;7285419;19;153082;-59
2022/10/26 11:06:27;;;;;;;;;;;;;;;21.65;65.42;100814.31;7277885;19;152787;-59
2022/10/26 11:09:05;;;;;;;;;;;;;;;21.68;65.75;100821.28;7284647;19;152933;-59
2022/10/26 11:11:54;;;;;;;;;;;;;;;21.68;65.25;100830.53;7278249;19;154650;-59
2022/10/26 11:14:30;;;;;;;;;;;;;;;21.70;65.57;100824.63;7289596;19;155088;-59
2022/10/26 11:17:15;;;;;;;;;;;;;;;21.70;65.38;100875.22;7282145;19;152067;-59
2022/10/26 11:19:46;;;;;;;;;;;;;;;21.73;65.14;100830.41;7277729;19;153935;-59
2022/10/26 11:22:15;;;;;;;;;;;;;;;21.73;64.39;100833.22;7276424;19;154856;-59
2022/10/26 11:24:49;;;;;;;;;;;;;;;21.69;64.66;100846.28;7284214;19;152465;-59
2022/10/26 11:27:19;;;;;;;;;;;;;;;21.72;64.84;100840.00;7278786;19;154289;-59
2022/10/26 11:29:51;;;;;;;;;;;;;;;21.71;64.53;100841.16;7284386;19;152336;-58
2022/10/26 11:32:23;;;;;;;;;;;;;;;21.72;64.23;100856.88;7284238;19;152983;-59
2022/10/26 11:35:04;;;;;;;;;;;;;;;21.73;63.97;100852.91;7283448;19;153744;-58
2022/10/26 11:37:38;;;;;;;;;;;;;;;21.74;64.14;100884.69;7292453;19;152301;-59
2022/10/26 11:40:12;;;;;;;;;;;;;;;21.74;63.67;100865.84;7283036;19;152817;-58
2022/10/26 11:42:45;;;;;;;;;;;;;;;21.74;63.68;100870.63;7280182;19;152410;-58
2022/10/26 11:45:16;;;;;;;;;;;;;;;21.73;63.64;100871.78;7283077;19;153555;-58
2022/10/26 11:47:50;;;;;;;;;;;;;;;21.73;63.21;100881.03;7281883;19;153149;-59
2022/10/26 11:50:31;;;;;;;;;;;;;;;21.73;63.20;100877.41;7283453;19;151954;-58
2022/10/26 11:53:07;;;;;;;;;;;;;;;21.74;63.32;100885.53;7282767;19;154743;-58
2022/10/26 11:55:34;;;;;;;;;;;;;;;21.74;62.79;100881.88;7280690;19;152858;-59
2022/10/26 11:58:01;;;;;;;;;;;;;;;21.73;62.84;100885.84;7280320;19;152071;-58
2022/10/26 12:00:31;;;;;;;;;;;;;;;21.72;62.62;100887.81;7287173;19;152650;-58
2022/10/26 12:03:09;;;;;;;;;;;;;;;21.72;62.59;100899.06;7282260;19;151711;-58
2022/10/26 12:05:38;;;;;;;;;;;;;;;21.73;62.24;100902.72;7281823;19;152704;-58
2022/10/26 12:08:10;;;;;;;;;;;;;;;21.71;61.95;100916.28;7283244;19;153897;-59
2022/10/26 12:10:39;;;;;;;;;;;;;;;21.73;62.00;100923.22;7283046;19;152921;-58
2022/10/26 12:13:13;;;;;;;;;;;;;;;21.72;62.08;100921.56;7279863;19;152851;-58
2022/10/26 12:15:40;;;;;;;;;;;;;;;21.72;61.53;100920.72;7281297;19;154275;-58
2022/10/26 12:18:43;;;;;;;;;;;;;;;21.71;61.85;100921.91;7282904;19;151951;-58
2022/10/26 12:21:35;;;;;;;;;;;;;;;21.71;62.04;100924.72;7283436;19;152969;-59
2022/10/26 12:24:23;;;;;;;;;;;;;;;21.70;61.80;100923.03;7290901;19;153528;-59
2022/10/26 12:26:51;;;;;;;;;;;;;;;21.72;61.78;100931.97;7281475;19;152766;-59
2022/10/26 12:29:29;;;;;;;;;;;;;;;21.71;61.30;100933.16;7276891;19;153247;-59
2022/10/26 12:31:55;;;;;;;;;;;;;;;21.69;61.60;100958.75;7283320;19;151979;-59
2022/10/26 12:34:28;;;;;;;;;;;;;;;21.70;61.02;100948.34;7282038;19;152648;-59
2022/10/26 12:36:55;;;;;;;;;;;;;;;21.68;61.26;100947.81;7279691;19;153331;-59
2022/10/26 12:39:28;;;;;;;;;;;;;;;21.68;60.95;100959.91;7281923;19;152033;-59
2022/10/26 12:42:08;;;;;;;;;;;;;;;21.68;60.46;100961.88;7278894;19;152029;-59
2022/10/26 12:44:36;;;;;;;;;;;;;;;21.67;60.58;100963.00;7280116;19;153866;-59
2022/10/26 12:47:03;;;;;;;;;;;;;;;21.65;60.66;100963.34;7289858;19;153096;-59